createdAt,value
2022-09-04T00:01:28.240Z,19.06
2022-09-04T00:04:27.327Z,19.06
2022-09-04T00:07:06.570Z,19.11
2022-09-04T00:09:59.034Z,19.10
2022-09-04T00:12:34.126Z,19.03
2022-09-04T00:15:17.794Z,18.96
2022-09-04T00:17:53.021Z,19.10
2022-09-04T00:20:23.120Z,19.11
2022-09-04T00:22:54.132Z,19.00
2022-09-04T00:28:58.937Z,18.96
2022-09-04T00:31:29.270Z,19.00
2022-09-04T00:34:02.928Z,19.07
2022-09-04T00:36:30.117Z,19.01
2022-09-04T00:39:13.926Z,18.93
2022-09-04T00:41:50.313Z,19.06
2022-09-04T00:44:36.022Z,18.98
2022-09-04T00:47:26.585Z,18.92
2022-09-04T00:50:01.289Z,19.04
2022-09-04T00:52:58.467Z,19.05
2022-09-04T00:55:48.004Z,18.99
2022-09-04T00:58:18.188Z,19.02
2022-09-04T01:00:46.257Z,18.98
2022-09-04T01:03:27.514Z,18.92
2022-09-04T01:06:04.367Z,18.88
2022-09-04T01:08:56.710Z,18.98
2022-09-04T01:11:30.033Z,18.98
2022-09-04T01:14:11.089Z,18.83
2022-09-04T01:16:42.465Z,18.86
2022-09-04T01:19:47.719Z,18.96
2022-09-04T01:22:15.127Z,18.93
2022-09-04T01:25:03.478Z,18.95
2022-09-04T01:27:37.700Z,18.84
2022-09-04T01:30:22.977Z,18.95
2022-09-04T01:32:53.119Z,18.95
2022-09-04T01:35:44.466Z,18.91
2022-09-04T01:38:33.230Z,18.93
2022-09-04T01:41:07.594Z,18.91
2022-09-04T01:43:34.982Z,18.85
2022-09-04T01:46:24.285Z,18.89
2022-09-04T01:49:08.048Z,18.90
2022-09-04T01:52:03.039Z,18.87
2022-09-04T01:57:51.835Z,18.79
2022-09-04T02:00:22.321Z,18.68
2022-09-04T02:03:02.462Z,18.75
2022-09-04T02:05:49.793Z,18.66
2022-09-04T02:08:41.806Z,18.81
2022-09-04T02:11:29.457Z,18.84
2022-09-04T02:14:55.488Z,18.79
2022-09-04T02:17:34.138Z,18.74
2022-09-04T02:20:04.682Z,18.79
2022-09-04T02:22:35.038Z,18.82
2022-09-04T02:25:08.451Z,18.81
2022-09-04T02:27:48.782Z,18.73
2022-09-04T02:30:19.460Z,18.68
2022-09-04T02:33:12.426Z,18.81
2022-09-04T02:35:43.243Z,18.71
2022-09-04T02:38:28.230Z,18.77
2022-09-04T02:41:01.416Z,18.78
2022-09-04T02:43:54.845Z,18.75
2022-09-04T02:46:28.357Z,18.74
2022-09-04T02:49:13.431Z,18.61
2022-09-04T02:52:07.467Z,18.73
2022-09-04T02:54:58.953Z,18.73
2022-09-04T02:57:47.989Z,18.69
2022-09-04T03:00:21.640Z,18.68
2022-09-04T03:03:04.196Z,18.71
2022-09-04T03:05:33.697Z,18.73
2022-09-04T03:08:02.838Z,18.73
2022-09-04T03:10:45.446Z,18.74
2022-09-04T03:13:21.416Z,18.73
2022-09-04T03:16:00.758Z,18.73
2022-09-04T03:18:34.953Z,18.65
2022-09-04T03:21:02.096Z,18.72
2022-09-04T03:24:05.351Z,18.71
2022-09-04T03:26:47.299Z,18.65
2022-09-04T03:29:35.839Z,18.69
2022-09-04T03:32:22.033Z,18.70
2022-09-04T03:35:21.177Z,18.62
2022-09-04T03:38:08.445Z,18.67
2022-09-04T03:40:43.289Z,18.65
2022-09-04T03:43:42.724Z,18.69
2022-09-04T03:46:16.224Z,18.63
2022-09-04T03:48:52.360Z,18.44
2022-09-04T03:51:57.506Z,18.52
2022-09-04T03:54:35.899Z,18.56
2022-09-04T03:57:06.556Z,18.60
2022-09-04T04:00:09.900Z,18.66
2022-09-04T04:03:01.107Z,18.59
2022-09-04T04:05:42.380Z,18.62
2022-09-04T04:08:37.348Z,18.61
2022-09-04T04:11:40.115Z,18.61
2022-09-04T04:14:25.017Z,18.61
2022-09-04T04:17:20.736Z,18.61
2022-09-04T04:20:03.122Z,18.55
2022-09-04T04:22:53.310Z,18.61
2022-09-04T04:25:52.843Z,18.58
2022-09-04T04:29:00.134Z,18.59
2022-09-04T04:32:10.764Z,18.56
2022-09-04T04:35:11.678Z,18.56
2022-09-04T04:38:03.325Z,18.59
2022-09-04T04:40:33.801Z,18.58
2022-09-04T04:43:31.752Z,18.49
2022-09-04T04:46:21.119Z,18.59
2022-09-04T04:49:28.735Z,18.59
2022-09-04T04:52:06.067Z,18.60
2022-09-04T04:54:45.935Z,18.58
2022-09-04T04:57:27.190Z,18.62
2022-09-04T05:00:12.941Z,18.62
2022-09-04T05:02:53.407Z,18.63
2022-09-04T05:05:40.816Z,18.62
2022-09-04T05:08:20.387Z,18.62
2022-09-04T05:10:48.121Z,18.63
2022-09-04T05:13:26.058Z,18.64
2022-09-04T05:16:09.824Z,18.65
2022-09-04T05:19:05.061Z,18.64
2022-09-04T05:21:49.573Z,18.60
2022-09-04T05:24:45.166Z,18.59
2022-09-04T05:27:23.159Z,18.64
2022-09-04T05:29:56.039Z,18.64
2022-09-04T05:32:29.168Z,18.63
2022-09-04T05:35:24.982Z,18.62
2022-09-04T05:38:10.295Z,18.64
2022-09-04T05:40:37.232Z,18.65
2022-09-04T05:43:12.738Z,18.60
2022-09-04T05:46:02.306Z,18.66
2022-09-04T05:49:03.403Z,18.66
2022-09-04T05:51:34.929Z,18.65
2022-09-04T05:54:22.178Z,18.67
2022-09-04T05:57:11.391Z,18.66
2022-09-04T06:00:06.758Z,18.65
2022-09-04T06:03:20.885Z,18.64
2022-09-04T06:06:07.754Z,18.64
2022-09-04T06:08:56.924Z,18.66
2022-09-04T06:11:36.346Z,18.67
2022-09-04T06:14:22.171Z,18.65
2022-09-04T06:16:55.381Z,18.68
2022-09-04T06:19:28.275Z,18.65
2022-09-04T06:22:13.727Z,18.57
2022-09-04T06:24:47.644Z,18.68
2022-09-04T06:27:39.118Z,18.66
2022-09-04T06:30:16.466Z,18.56
2022-09-04T06:33:02.489Z,18.66
2022-09-04T06:35:37.821Z,18.61
2022-09-04T06:38:08.066Z,18.68
2022-09-04T06:40:35.254Z,18.69
2022-09-04T06:43:20.180Z,18.71
2022-09-04T06:54:18.717Z,18.58
2022-09-04T06:57:03.988Z,18.47
2022-09-04T06:59:33.723Z,18.69
2022-09-04T07:02:38.154Z,18.69
2022-09-04T07:05:51.706Z,18.68
2022-09-04T07:33:03.272Z,18.76
2022-09-04T07:35:40.279Z,18.68
2022-09-04T07:38:23.672Z,18.72
2022-09-04T07:40:58.426Z,18.68
2022-09-04T07:43:44.621Z,18.88
2022-09-04T07:46:33.625Z,18.90
2022-09-04T07:53:19.950Z,18.87
2022-09-04T07:55:58.849Z,18.81
2022-09-04T07:58:35.177Z,18.98
2022-09-04T08:01:42.369Z,18.83
2022-09-04T08:04:21.553Z,19.00
2022-09-04T08:06:56.540Z,19.01
2022-09-04T08:10:01.141Z,18.88
2022-09-04T08:13:00.047Z,19.01
2022-09-04T08:15:43.456Z,18.87
2022-09-04T08:18:53.222Z,18.82
2022-09-04T10:26:26.984Z,20.17
2022-09-04T11:30:10.970Z,21.30
2022-09-04T11:48:49.582Z,21.85
2022-09-04T11:55:07.900Z,22.09
2022-09-04T11:57:54.796Z,22.20
2022-09-04T12:00:25.337Z,22.24
2022-09-04T12:03:35.487Z,22.37
2022-09-04T12:06:28.784Z,22.21
2022-09-04T12:09:10.057Z,22.29
2022-09-04T12:12:08.504Z,22.46
2022-09-04T12:15:10.144Z,22.51
2022-09-04T12:29:36.357Z,22.52
2022-09-04T12:51:24.801Z,22.58
2022-09-04T13:00:47.191Z,22.49
2022-09-04T13:03:28.755Z,22.69
2022-09-04T13:06:15.052Z,22.58
2022-09-04T13:09:19.392Z,22.71
2022-09-04T13:12:09.949Z,22.61
2022-09-04T13:18:54.337Z,22.60
2022-09-04T13:25:36.716Z,22.69
2022-09-04T13:28:17.239Z,22.71
2022-09-04T13:31:00.162Z,22.77
2022-09-04T13:33:51.526Z,22.77
2022-09-04T13:37:17.606Z,22.81
2022-09-04T13:40:01.310Z,22.81
2022-09-04T13:42:54.650Z,22.85
2022-09-04T13:45:23.917Z,22.76
2022-09-04T13:48:02.779Z,22.96
2022-09-04T13:51:17.474Z,22.93
2022-09-04T13:54:34.285Z,22.73
2022-09-04T13:57:34.342Z,22.75
2022-09-04T14:08:13.051Z,22.78
2022-09-04T14:11:24.749Z,22.95
2022-09-04T14:24:29.505Z,22.96
2022-09-04T15:05:11.098Z,22.76
2022-09-04T15:33:58.744Z,22.34
2022-09-04T15:37:06.243Z,22.30
2022-09-04T16:00:11.707Z,22.32
